Time;durP1;ratioP1;P1;durP2;ratioP2;P2;SDS_P1;SDS_P2;PMS_P1;PMS_P2;Temp;Humidity;BMP_temperature;BMP_pressure;BME280_temperature;BME280_humidity;BME280_pressure;Samples;Min_cycle;Max_cycle;Signal;HPM_P1;HPM_P2
2023/06/23 00:00:37;;;;;;;7.75;4.88;;;19.60;88.20;;;;;;5118585;28;20055;-77
2023/06/23 00:03:02;;;;;;;7.20;4.30;;;19.70;88.30;;;;;;5101692;28;20032;-77
2023/06/23 00:05:28;;;;;;;8.73;4.80;;;19.60;88.20;;;;;;5101633;28;20019;-77
2023/06/23 00:07:54;;;;;;;8.63;4.57;;;19.60;88.40;;;;;;5101472;28;20020;-77
2023/06/23 00:10:20;;;;;;;7.32;5.00;;;19.60;88.40;;;;;;5118489;28;20024;-77
2023/06/23 00:12:47;;;;;;;7.53;4.70;;;19.60;88.40;;;;;;5136467;28;20028;-77
2023/06/23 00:15:14;;;;;;;8.00;4.43;;;19.60;88.40;;;;;;5118707;28;20053;-77
2023/06/23 00:17:44;;;;;;;7.25;5.03;;;19.60;88.40;;;;;;5118439;28;20089;-77
2023/06/23 00:20:12;;;;;;;8.73;5.07;;;19.50;88.50;;;;;;5118352;28;20028;-77
2023/06/23 00:22:40;;;;;;;9.40;5.75;;;19.50;88.60;;;;;;5118592;28;20024;-77
2023/06/23 00:25:09;;;;;;;8.07;5.20;;;19.50;88.70;;;;;;5101542;28;20031;-77
2023/06/23 00:27:38;;;;;;;9.00;5.00;;;19.50;88.80;;;;;;5136164;28;20016;-77
2023/06/23 00:30:06;;;;;;;6.97;4.93;;;19.40;88.90;;;;;;5135998;28;20016;-77
2023/06/23 00:32:32;;;;;;;9.27;5.47;;;19.40;89.00;;;;;;5135599;28;20020;-77
2023/06/23 00:34:59;;;;;;;8.88;5.60;;;19.40;89.00;;;;;;5117933;28;20027;-77
2023/06/23 00:37:25;;;;;;;8.00;5.43;;;19.30;89.00;;;;;;5117930;28;20023;-77
2023/06/23 00:39:51;;;;;;;7.82;5.45;;;19.30;89.20;;;;;;5117849;28;20024;-77
2023/06/23 00:42:16;;;;;;;8.43;5.53;;;19.30;89.40;;;;;;5117918;28;20029;-77
2023/06/23 00:44:42;;;;;;;9.43;5.50;;;19.20;89.40;;;;;;5100866;28;20027;-77
2023/06/23 00:47:08;;;;;;;10.63;6.07;;;19.20;89.60;;;;;;5135765;28;20049;-77
2023/06/23 00:49:35;;;;;;;8.20;5.53;;;19.20;89.90;;;;;;5135741;28;20081;-77
2023/06/23 00:52:03;;;;;;;10.70;5.75;;;19.10;90.10;;;;;;5117447;28;20047;-77
2023/06/23 00:54:32;;;;;;;12.45;6.38;;;19.10;90.10;;;;;;5135717;28;20154;-77
2023/06/23 00:56:58;;;;;;;10.27;6.13;;;19.00;90.10;;;;;;5101031;28;20035;-77
2023/06/23 00:59:28;;;;;;;9.52;6.05;;;19.10;90.20;;;;;;5135498;28;20083;-77
2023/06/23 01:02:01;;;;;;;12.48;6.00;;;19.00;90.20;;;;;;5117704;28;20032;-77
2023/06/23 01:04:34;;;;;;;11.88;6.35;;;19.00;90.30;;;;;;5117345;28;20024;-77
2023/06/23 01:07:26;;;;;;;10.75;6.95;;;18.90;90.40;;;;;;5135535;28;20026;-77
2023/06/23 01:10:10;;;;;;;9.65;5.80;;;18.90;90.40;;;;;;5117279;28;20131;-77
2023/06/23 01:12:47;;;;;;;10.23;5.70;;;18.90;90.40;;;;;;5135278;28;20031;-77
2023/06/23 01:15:21;;;;;;;9.32;5.90;;;18.80;90.40;;;;;;5117291;28;20015;-77
2023/06/23 01:17:57;;;;;;;9.70;6.25;;;18.80;90.80;;;;;;5135190;28;20024;-76
2023/06/23 01:20:27;;;;;;;11.27;6.20;;;18.80;90.50;;;;;;5135115;28;20016;-77
2023/06/23 01:23:20;;;;;;;9.60;5.88;;;18.80;90.50;;;;;;5135074;28;20020;-77
2023/06/23 01:26:01;;;;;;;13.65;6.82;;;18.80;90.50;;;;;;5135216;28;20052;-77
2023/06/23 01:28:37;;;;;;;10.88;6.63;;;18.70;90.60;;;;;;5116986;28;20027;-77
2023/06/23 01:31:13;;;;;;;12.15;7.30;;;18.70;90.80;;;;;;5135042;28;20012;-77
2023/06/23 01:33:44;;;;;;;11.52;6.97;;;18.70;90.90;;;;;;5134807;28;20026;-77
2023/06/23 01:36:16;;;;;;;13.75;6.93;;;18.70;90.90;;;;;;5116838;28;20031;-77
2023/06/23 01:38:47;;;;;;;13.85;8.13;;;18.70;90.90;;;;;;5134739;28;20030;-76
2023/06/23 01:41:23;;;;;;;15.02;7.45;;;18.70;91.00;;;;;;5116757;28;20027;-77
2023/06/23 01:43:53;;;;;;;11.07;7.43;;;18.70;91.10;;;;;;5115794;28;20030;-77
2023/06/23 01:46:25;;;;;;;13.93;8.60;;;18.70;91.20;;;;;;5117260;28;20019;-77
2023/06/23 01:48:58;;;;;;;13.55;7.18;;;18.60;91.20;;;;;;5134653;28;20020;-77
2023/06/23 01:51:28;;;;;;;11.10;7.75;;;18.60;91.30;;;;;;5116484;28;20046;-77
2023/06/23 01:53:55;;;;;;;13.52;8.20;;;18.70;91.20;;;;;;5134094;28;20055;-77
2023/06/23 01:56:23;;;;;;;13.60;7.47;;;18.70;91.20;;;;;;5116369;28;20031;-77
2023/06/23 01:58:51;;;;;;;12.30;8.00;;;18.70;91.20;;;;;;5116484;28;20049;-77
2023/06/23 02:01:17;;;;;;;12.15;8.23;;;18.60;91.30;;;;;;5082852;28;20043;-77
2023/06/23 02:03:44;;;;;;;12.85;8.10;;;18.70;91.20;;;;;;5082665;28;20087;-77
2023/06/23 02:06:12;;;;;;;12.15;7.85;;;18.70;91.30;;;;;;5116230;28;20057;-77
2023/06/23 02:08:39;;;;;;;16.60;8.55;;;18.70;91.20;;;;;;5134253;28;20102;-77
2023/06/23 02:11:06;;;;;;;12.07;7.95;;;18.70;91.20;;;;;;5134188;28;20042;-76
2023/06/23 02:13:33;;;;;;;11.85;8.52;;;18.70;91.30;;;;;;5099222;28;20027;-77
2023/06/23 02:16:00;;;;;;;12.35;8.35;;;18.60;91.30;;;;;;5082647;28;20038;-77
2023/06/23 02:18:27;;;;;;;13.52;9.23;;;18.60;91.30;;;;;;5116144;28;20058;-77
2023/06/23 02:20:54;;;;;;;13.60;8.77;;;18.60;91.30;;;;;;5116010;28;20023;-77
2023/06/23 02:23:21;;;;;;;17.75;9.63;;;18.60;91.30;;;;;;5133967;28;20043;-77
2023/06/23 02:25:48;;;;;;;13.00;9.05;;;18.50;91.40;;;;;;5134035;28;20020;-77
2023/06/23 02:28:13;;;;;;;16.85;9.35;;;18.50;91.40;;;;;;5099185;28;20035;-77
2023/06/23 02:30:40;;;;;;;15.98;9.82;;;18.50;91.40;;;;;;5133950;28;20027;-77
2023/06/23 02:33:06;;;;;;;15.85;9.77;;;18.40;91.40;;;;;;5099157;28;20024;-77
2023/06/23 02:35:33;;;;;;;16.92;9.93;;;18.40;91.40;;;;;;5099064;28;20420;-77
2023/06/23 02:38:02;;;;;;;14.63;9.82;;;18.40;91.70;;;;;;5116081;28;20028;-77
2023/06/23 02:40:31;;;;;;;17.08;10.25;;;18.40;91.40;;;;;;5115840;28;20091;-77
2023/06/23 02:43:05;;;;;;;16.85;10.90;;;18.40;91.40;;;;;;5115776;28;20020;-77
2023/06/23 02:45:39;;;;;;;19.60;11.32;;;18.40;91.30;;;;;;5115837;28;20027;-77
2023/06/23 02:48:13;;;;;;;17.90;11.02;;;18.40;91.30;;;;;;5133871;28;20020;-77
2023/06/23 02:50:40;;;;;;;21.27;11.18;;;18.40;91.30;;;;;;5115808;28;20049;-77
2023/06/23 02:53:13;;;;;;;20.90;12.35;;;18.40;91.30;;;;;;5115562;28;20039;-78
2023/06/23 02:55:40;;;;;;;19.02;12.13;;;18.40;91.60;;;;;;5135148;28;20019;-77
2023/06/23 02:58:09;;;;;;;18.70;11.68;;;18.40;91.30;;;;;;5119920;28;20038;-77
2023/06/23 03:00:37;;;;;;;20.17;12.52;;;18.40;91.20;;;;;;5137850;28;20028;-77
2023/06/23 03:03:07;;;;;;;23.63;13.20;;;18.40;91.20;;;;;;5119598;28;20052;-77
2023/06/23 03:05:33;;;;;;;22.42;13.20;;;18.40;91.10;;;;;;5119831;28;20020;-77
2023/06/23 03:08:00;;;;;;;22.40;13.48;;;18.40;91.10;;;;;;5119848;28;20023;-77
2023/06/23 03:10:27;;;;;;;20.88;13.40;;;18.40;91.00;;;;;;5103225;28;20030;-76
2023/06/23 03:12:53;;;;;;;19.13;13.18;;;18.40;91.00;;;;;;5119523;28;20019;-77
2023/06/23 03:15:19;;;;;;;25.50;14.15;;;18.30;91.00;;;;;;5137737;28;20031;-77
2023/06/23 03:17:47;;;;;;;21.75;13.35;;;18.30;91.00;;;;;;5119508;28;20043;-76
2023/06/23 03:20:41;;;;;;;26.48;14.52;;;18.30;91.00;;;;;;5137459;28;20547;-76
2023/06/23 03:23:13;;;;;;;23.20;14.25;;;18.30;90.90;;;;;;5137527;28;20032;-77
2023/06/23 03:25:46;;;;;;;20.48;13.25;;;18.30;90.90;;;;;;5137360;28;20027;-77
2023/06/23 03:28:16;;;;;;;19.70;13.23;;;18.30;90.90;;;;;;5119237;28;20034;-78
2023/06/23 03:30:48;;;;;;;19.88;13.38;;;18.30;90.90;;;;;;5137291;28;20012;-77
2023/06/23 03:33:32;;;;;;;22.40;12.88;;;18.30;90.90;;;;;;5119035;28;20023;-77
2023/06/23 03:36:04;;;;;;;22.08;13.57;;;18.20;90.70;;;;;;5119294;28;20031;-77
2023/06/23 03:38:34;;;;;;;21.53;12.77;;;18.20;90.80;;;;;;5137206;28;20047;-77
2023/06/23 03:41:07;;;;;;;22.67;13.85;;;18.20;90.80;;;;;;5137119;28;20028;-77
2023/06/23 03:43:53;;;;;;;20.40;13.80;;;18.20;90.80;;;;;;5137015;28;20034;-76
2023/06/23 03:46:46;;;;;;;21.17;13.63;;;18.20;90.80;;;;;;5119056;28;20020;-76
2023/06/23 03:49:13;;;;;;;20.95;13.80;;;18.20;90.70;;;;;;5133826;28;20036;-76
2023/06/23 03:51:42;;;;;;;22.88;14.05;;;18.10;90.80;;;;;;5136778;28;20039;-76
2023/06/23 03:54:09;;;;;;;24.05;14.50;;;18.10;90.90;;;;;;5118543;28;20040;-76
2023/06/23 03:56:38;;;;;;;20.27;12.95;;;18.10;90.90;;;;;;5136802;28;20038;-74
2023/06/23 03:59:05;;;;;;;22.73;14.50;;;18.10;90.90;;;;;;5118757;28;20028;-74
2023/06/23 04:01:33;;;;;;;22.40;14.07;;;18.10;90.90;;;;;;5101743;28;20020;-75
2023/06/23 04:04:01;;;;;;;21.67;14.15;;;18.20;90.90;;;;;;5136556;28;20068;-74
2023/06/23 04:06:28;;;;;;;23.67;14.73;;;18.20;90.80;;;;;;5084731;28;20083;-74
2023/06/23 04:08:55;;;;;;;22.33;14.60;;;18.20;90.80;;;;;;5117927;28;20027;-74
2023/06/23 04:11:22;;;;;;;23.60;14.90;;;18.20;90.80;;;;;;5136504;28;20028;-74
2023/06/23 04:13:50;;;;;;;24.70;14.95;;;18.20;90.70;;;;;;5118493;28;20073;-74
2023/06/23 04:16:17;;;;;;;24.88;14.82;;;18.20;90.80;;;;;;5136310;28;20028;-75
2023/06/23 04:18:43;;;;;;;23.77;15.27;;;18.20;90.80;;;;;;5101363;28;20470;-74
2023/06/23 04:21:10;;;;;;;24.63;15.05;;;18.20;90.80;;;;;;5136310;28;20092;-74
2023/06/23 04:23:38;;;;;;;24.25;15.98;;;18.20;90.80;;;;;;5084660;28;20053;-74
2023/06/23 04:26:06;;;;;;;24.55;15.25;;;18.20;90.90;;;;;;5118480;28;20030;-74
2023/06/23 04:28:35;;;;;;;28.42;15.70;;;18.20;90.90;;;;;;5136131;28;20049;-74
2023/06/23 04:31:05;;;;;;;26.35;15.88;;;18.20;90.90;;;;;;5136113;28;20020;-75
2023/06/23 04:33:30;;;;;;;25.90;16.00;;;18.20;90.90;;;;;;5135977;28;20027;-74
2023/06/23 04:36:02;;;;;;;29.92;16.80;;;18.20;90.80;;;;;;5118018;28;20019;-74
2023/06/23 04:38:32;;;;;;;27.40;16.80;;;18.20;90.90;;;;;;5118007;28;20091;-75
2023/06/23 04:41:00;;;;;;;26.58;16.40;;;18.20;90.90;;;;;;5136111;28;20379;-74
2023/06/23 04:43:31;;;;;;;28.88;17.80;;;18.20;91.00;;;;;;5117701;28;20028;-74
2023/06/23 04:46:03;;;;;;;29.73;17.40;;;18.20;91.00;;;;;;5135743;28;20020;-74
2023/06/23 04:48:32;;;;;;;30.05;18.85;;;18.20;91.10;;;;;;5135817;28;20023;-74
2023/06/23 04:50:59;;;;;;;29.20;18.30;;;18.20;91.10;;;;;;5135711;28;20020;-75
2023/06/23 04:53:32;;;;;;;29.23;17.25;;;18.20;91.20;;;;;;5117390;28;20073;-74
2023/06/23 04:56:01;;;;;;;33.28;18.27;;;18.30;91.20;;;;;;5135592;28;20020;-74
2023/06/23 04:58:31;;;;;;;32.67;19.05;;;18.30;91.00;;;;;;5135566;28;20027;-74
2023/06/23 05:00:58;;;;;;;34.80;19.27;;;18.30;91.30;;;;;;5135684;28;20048;-74
2023/06/23 05:03:27;;;;;;;31.38;18.55;;;18.40;91.30;;;;;;5117468;28;20030;-74
2023/06/23 05:05:55;;;;;;;34.20;19.70;;;18.40;91.40;;;;;;5117311;28;20019;-74
2023/06/23 05:08:25;;;;;;;35.45;19.60;;;18.40;91.40;;;;;;5100599;28;20100;-74
2023/06/23 05:10:53;;;;;;;29.60;18.02;;;18.40;91.40;;;;;;5135311;28;20027;-75
2023/06/23 05:13:20;;;;;;;32.75;19.13;;;18.40;91.40;;;;;;5117266;28;20024;-75
2023/06/23 05:15:49;;;;;;;29.02;17.52;;;18.50;91.50;;;;;;5117119;28;20030;-74
2023/06/23 05:18:18;;;;;;;32.28;18.90;;;18.50;91.50;;;;;;5116985;28;20035;-74
2023/06/23 05:20:45;;;;;;;32.90;17.92;;;18.50;91.50;;;;;;5117023;28;20016;-74
2023/06/23 05:23:13;;;;;;;35.80;19.08;;;18.60;91.60;;;;;;5117145;28;20052;-74
2023/06/23 05:25:43;;;;;;;34.75;19.08;;;18.60;91.60;;;;;;5135031;28;20464;-74
2023/06/23 05:28:10;;;;;;;33.35;19.27;;;18.60;91.80;;;;;;5135110;28;20023;-74
2023/06/23 05:30:37;;;;;;;31.73;18.90;;;18.60;91.80;;;;;;5134921;28;20040;-75
2023/06/23 05:33:07;;;;;;;32.67;19.23;;;18.70;91.90;;;;;;5117083;28;20019;-74
2023/06/23 05:35:34;;;;;;;33.03;19.27;;;18.70;91.90;;;;;;5134812;28;20016;-75
2023/06/23 05:38:01;;;;;;;33.53;18.90;;;18.70;92.10;;;;;;5134920;28;20038;-74
2023/06/23 05:40:27;;;;;;;35.13;19.35;;;18.70;92.10;;;;;;5134733;28;20028;-74
2023/06/23 05:42:53;;;;;;;33.38;18.40;;;18.70;92.10;;;;;;5134625;28;20101;-76
2023/06/23 05:45:19;;;;;;;32.90;19.38;;;18.80;92.10;;;;;;5099755;28;20024;-75
2023/06/23 05:47:53;;;;;;;33.03;18.95;;;18.80;92.30;;;;;;5116700;28;20020;-75
2023/06/23 05:50:23;;;;;;;37.67;19.75;;;18.80;92.20;;;;;;5134562;28;20035;-77
2023/06/23 05:52:58;;;;;;;33.88;19.20;;;18.90;92.30;;;;;;5116193;28;20036;-76
2023/06/23 05:55:26;;;;;;;33.22;19.92;;;18.90;92.50;;;;;;5134625;28;20019;-76
2023/06/23 05:57:59;;;;;;;33.88;19.13;;;19.00;92.40;;;;;;5116862;28;20024;-76
2023/06/23 06:00:30;;;;;;;37.35;20.33;;;19.00;92.50;;;;;;5134322;28;20016;-76
2023/06/23 06:02:56;;;;;;;37.70;20.25;;;19.10;92.50;;;;;;5134323;28;20023;-76
2023/06/23 06:05:23;;;;;;;41.63;20.58;;;19.10;92.50;;;;;;5099653;28;20034;-76
2023/06/23 06:07:50;;;;;;;37.63;20.15;;;19.10;92.50;;;;;;5116342;28;20016;-76
2023/06/23 06:10:18;;;;;;;36.42;21.00;;;19.20;92.50;;;;;;5134239;28;20049;-76
2023/06/23 06:12:45;;;;;;;37.35;20.65;;;19.20;92.50;;;;;;5099481;28;20051;-76
2023/06/23 06:15:13;;;;;;;41.45;21.42;;;19.30;92.50;;;;;;5134163;28;20030;-76
2023/06/23 06:17:40;;;;;;;35.30;20.73;;;19.30;92.50;;;;;;5134134;28;20027;-76
2023/06/23 06:20:08;;;;;;;37.20;20.40;;;19.30;92.50;;;;;;5099246;28;20066;-76
2023/06/23 06:22:36;;;;;;;38.97;21.02;;;19.30;92.50;;;;;;5134016;28;20043;-76
2023/06/23 06:25:04;;;;;;;41.38;22.20;;;19.40;92.50;;;;;;5134044;28;20069;-76
2023/06/23 06:27:32;;;;;;;39.55;21.33;;;19.40;92.70;;;;;;5133952;28;20019;-76
2023/06/23 06:29:59;;;;;;;36.95;21.20;;;19.40;92.60;;;;;;5133448;28;20046;-76
2023/06/23 06:32:29;;;;;;;38.97;22.33;;;19.40;92.70;;;;;;5115881;28;20028;-76
2023/06/23 06:34:57;;;;;;;39.80;21.67;;;19.40;92.70;;;;;;5133996;28;20020;-76
2023/06/23 06:37:24;;;;;;;37.17;21.65;;;19.40;92.60;;;;;;5133893;28;20047;-76
2023/06/23 06:39:51;;;;;;;38.67;21.30;;;19.50;92.60;;;;;;5115875;28;20028;-76
2023/06/23 06:42:17;;;;;;;41.17;22.27;;;19.50;92.70;;;;;;5133867;28;20137;-76
2023/06/23 06:44:43;;;;;;;40.63;22.33;;;19.50;92.70;;;;;;5099114;28;20027;-76
2023/06/23 06:47:11;;;;;;;39.42;22.30;;;19.60;92.70;;;;;;5133833;28;20031;-76
2023/06/23 06:49:39;;;;;;;34.10;20.75;;;19.70;92.80;;;;;;5115792;28;20047;-76
2023/06/23 06:52:06;;;;;;;36.72;21.27;;;19.80;92.80;;;;;;5115802;28;20030;-75
2023/06/23 06:54:33;;;;;;;34.50;19.95;;;19.80;92.70;;;;;;5133599;28;20052;-76
2023/06/23 06:56:59;;;;;;;36.10;21.38;;;19.80;92.60;;;;;;5133742;28;20079;-76
2023/06/23 06:59:24;;;;;;;36.63;20.52;;;19.90;92.50;;;;;;5098937;28;20039;-76
2023/06/23 07:01:50;;;;;;;33.67;20.13;;;20.00;92.50;;;;;;5133784;28;20089;-75
2023/06/23 07:04:17;;;;;;;36.15;21.45;;;20.10;92.40;;;;;;5115547;28;20067;-76
2023/06/23 07:06:42;;;;;;;38.88;21.33;;;20.10;92.40;;;;;;5115698;28;20474;-76
2023/06/23 07:09:08;;;;;;;35.35;21.17;;;20.20;92.40;;;;;;5082056;28;20039;-76
2023/06/23 07:11:35;;;;;;;35.38;21.27;;;20.20;92.30;;;;;;5115735;28;20037;-76
2023/06/23 07:14:01;;;;;;;36.08;20.73;;;20.20;92.20;;;;;;5115945;28;20024;-76
2023/06/23 07:16:30;;;;;;;33.28;20.33;;;20.30;92.10;;;;;;5133555;28;20049;-76
2023/06/23 07:18:57;;;;;;;31.30;19.30;;;20.20;91.90;;;;;;5099867;28;20028;-76
2023/06/23 07:21:23;;;;;;;33.45;20.08;;;20.20;91.70;;;;;;5133665;28;20027;-76
2023/06/23 07:23:48;;;;;;;34.97;19.77;;;20.20;91.60;;;;;;5115303;28;20032;-76
2023/06/23 07:26:14;;;;;;;29.95;19.42;;;20.20;91.50;;;;;;5098576;28;20023;-76
2023/06/23 07:28:39;;;;;;;30.70;18.55;;;20.20;91.50;;;;;;5115438;28;20203;-76
2023/06/23 07:31:05;;;;;;;30.52;17.98;;;20.20;91.50;;;;;;5098522;28;20048;-76
2023/06/23 07:33:31;;;;;;;24.30;15.32;;;20.30;91.40;;;;;;5133505;28;20024;-76
2023/06/23 07:35:56;;;;;;;23.50;15.75;;;20.30;91.20;;;;;;5133370;28;20024;-77
2023/06/23 07:38:22;;;;;;;24.17;15.38;;;20.40;91.00;;;;;;5115326;28;20031;-77
2023/06/23 07:40:49;;;;;;;22.98;14.80;;;20.40;90.90;;;;;;5133360;28;20031;-77
2023/06/23 07:43:14;;;;;;;23.92;15.23;;;20.50;90.70;;;;;;5100487;28;20068;-76
2023/06/23 07:45:41;;;;;;;24.67;15.55;;;20.50;90.60;;;;;;5102000;28;20033;-76
2023/06/23 07:48:06;;;;;;;25.80;16.20;;;20.60;90.30;;;;;;5118844;28;20016;-77
2023/06/23 07:50:32;;;;;;;24.35;16.10;;;20.60;90.30;;;;;;5136912;28;20031;-76
2023/06/23 07:52:57;;;;;;;25.17;15.60;;;20.70;90.30;;;;;;5118767;28;20036;-77
2023/06/23 07:55:23;;;;;;;25.88;15.95;;;20.80;90.20;;;;;;5101821;28;20130;-76
2023/06/23 07:57:49;;;;;;;27.70;15.57;;;20.80;90.00;;;;;;5136780;28;20035;-77
2023/06/23 08:00:16;;;;;;;24.45;15.30;;;20.80;89.80;;;;;;5101659;28;20057;-77
2023/06/23 08:02:41;;;;;;;26.80;15.60;;;20.90;89.80;;;;;;5101600;28;20027;-77
2023/06/23 08:05:08;;;;;;;25.70;15.50;;;21.00;89.30;;;;;;5101931;28;20031;-77
2023/06/23 08:07:34;;;;;;;23.88;15.45;;;21.00;89.10;;;;;;5101632;28;20019;-76
2023/06/23 08:09:59;;;;;;;22.52;13.95;;;21.00;89.10;;;;;;5084862;28;20045;-77
2023/06/23 08:12:25;;;;;;;22.77;14.10;;;21.10;88.20;;;;;;5084836;28;20036;-77
2023/06/23 08:14:50;;;;;;;22.98;15.15;;;21.10;87.90;;;;;;5101614;28;20091;-77
2023/06/23 08:17:16;;;;;;;23.70;15.68;;;21.10;87.40;;;;;;5118422;28;20035;-77
2023/06/23 08:19:43;;;;;;;26.33;16.77;;;21.20;87.70;;;;;;5136343;28;20027;-77
2023/06/23 08:22:09;;;;;;;25.50;15.38;;;21.20;87.80;;;;;;5118289;28;20031;-77
2023/06/23 08:24:35;;;;;;;20.88;13.82;;;21.20;87.30;;;;;;5136193;28;20028;-76
2023/06/23 08:27:01;;;;;;;17.35;11.43;;;21.30;87.20;;;;;;5136202;28;20027;-76
2023/06/23 08:29:27;;;;;;;19.60;12.05;;;21.30;85.90;;;;;;5136184;28;20024;-76
2023/06/23 08:31:52;;;;;;;18.83;11.98;;;21.40;86.00;;;;;;5118125;28;20043;-76
2023/06/23 08:34:18;;;;;;;20.65;12.93;;;21.50;85.80;;;;;;5118128;28;20038;-77
2023/06/23 08:36:44;;;;;;;22.88;14.65;;;21.50;84.70;;;;;;5117970;28;20038;-77
2023/06/23 08:39:10;;;;;;;20.55;13.85;;;21.50;85.30;;;;;;5135990;28;20051;-77
2023/06/23 08:41:41;;;;;;;20.40;13.93;;;21.60;85.60;;;;;;5101126;28;20036;-76
2023/06/23 08:44:09;;;;;;;18.60;12.50;;;21.70;85.20;;;;;;5118163;28;20121;-77
2023/06/23 08:46:37;;;;;;;14.10;10.15;;;21.70;85.00;;;;;;5117820;28;20458;-77
2023/06/23 08:49:13;;;;;;;19.10;12.50;;;21.80;83.60;;;;;;5117701;28;20077;-76
2023/06/23 08:51:40;;;;;;;23.88;15.07;;;21.80;82.70;;;;;;5117686;28;20041;-76
2023/06/23 08:54:05;;;;;;;23.63;15.73;;;21.90;83.50;;;;;;5117224;28;20052;-76
2023/06/23 08:56:32;;;;;;;19.23;13.45;;;21.90;83.90;;;;;;5135623;28;20016;-77
2023/06/23 08:58:58;;;;;;;19.45;13.27;;;22.00;83.00;;;;;;5117705;28;20027;-76
2023/06/23 09:01:23;;;;;;;19.80;12.93;;;22.00;82.60;;;;;;5135539;28;20028;-76
2023/06/23 09:03:50;;;;;;;18.13;11.10;;;22.10;82.50;;;;;;5100636;28;20095;-77
2023/06/23 09:06:16;;;;;;;18.77;12.15;;;22.20;81.80;;;;;;5100638;28;20027;-77
2023/06/23 09:08:42;;;;;;;17.00;11.40;;;22.20;81.60;;;;;;5100440;28;20035;-76
2023/06/23 09:11:07;;;;;;;17.42;11.10;;;22.20;82.00;;;;;;5100438;28;20024;-77
2023/06/23 09:13:40;;;;;;;17.42;11.70;;;22.30;80.80;;;;;;5135282;28;20027;-76
2023/06/23 09:16:08;;;;;;;13.48;9.23;;;22.30;80.70;;;;;;5117167;28;20024;-76
2023/06/23 09:18:40;;;;;;;15.13;8.77;;;22.40;80.20;;;;;;5100492;28;20050;-76
2023/06/23 09:21:07;;;;;;;14.75;9.27;;;22.50;79.60;;;;;;5117092;28;20026;-76
2023/06/23 09:23:34;;;;;;;14.63;9.48;;;22.60;79.90;;;;;;5134980;28;20024;-77
2023/06/23 09:26:04;;;;;;;17.92;9.70;;;22.70;79.80;;;;;;5135036;28;20019;-77
2023/06/23 09:28:37;;;;;;;14.43;9.68;;;22.80;79.70;;;;;;5117579;28;20024;-76
2023/06/23 09:31:13;;;;;;;12.55;9.52;;;22.80;78.30;;;;;;5134963;28;20024;-76
2023/06/23 09:33:47;;;;;;;12.07;8.95;;;22.80;77.80;;;;;;5083296;28;20053;-77
2023/06/23 09:36:13;;;;;;;14.30;9.60;;;22.80;75.80;;;;;;5116896;28;20027;-76
2023/06/23 09:38:39;;;;;;;14.07;9.88;;;22.90;77.60;;;;;;5116742;28;20024;-76
2023/06/23 09:41:11;;;;;;;15.15;9.70;;;22.90;78.20;;;;;;5116799;28;20049;-76
2023/06/23 09:43:50;;;;;;;13.82;8.90;;;23.10;78.40;;;;;;5134616;28;20079;-76
2023/06/23 09:46:17;;;;;;;13.85;9.48;;;23.10;78.10;;;;;;5116634;28;20031;-77
2023/06/23 09:48:45;;;;;;;12.32;8.40;;;23.20;77.50;;;;;;5083143;28;20031;-76
2023/06/23 09:51:11;;;;;;;12.23;8.93;;;23.30;77.70;;;;;;5116504;28;20098;-77
2023/06/23 09:53:40;;;;;;;15.68;9.52;;;23.50;78.20;;;;;;5099587;28;20051;-76
2023/06/23 09:56:12;;;;;;;15.95;9.38;;;23.60;77.90;;;;;;5116328;28;20020;-77
2023/06/23 09:58:40;;;;;;;14.68;8.90;;;23.60;77.00;;;;;;5134559;28;20079;-77
2023/06/23 10:01:10;;;;;;;16.27;11.70;;;23.70;77.50;;;;;;5116791;28;20179;-77
2023/06/23 10:03:46;;;;;;;17.67;11.25;;;23.70;77.20;;;;;;5134385;28;20049;-76
2023/06/23 10:06:38;;;;;;;14.18;8.90;;;23.80;76.60;;;;;;5133549;28;20032;-76
2023/06/23 10:09:07;;;;;;;13.15;8.50;;;23.70;74.80;;;;;;5134307;28;20020;-75
2023/06/23 10:11:40;;;;;;;14.57;9.45;;;23.70;75.70;;;;;;5099344;28;20020;-77
2023/06/23 10:14:14;;;;;;;12.77;8.48;;;23.90;75.80;;;;;;5134213;28;20030;-76
2023/06/23 10:16:41;;;;;;;14.23;9.32;;;23.90;76.20;;;;;;5116097;28;20062;-77
2023/06/23 10:19:07;;;;;;;14.85;9.82;;;24.00;75.80;;;;;;5116499;28;20023;-76
2023/06/23 10:21:35;;;;;;;12.82;9.23;;;24.10;75.80;;;;;;5116235;28;20031;-76
2023/06/23 10:24:06;;;;;;;14.10;9.02;;;24.10;75.40;;;;;;5116002;28;20039;-77
2023/06/23 10:26:35;;;;;;;15.02;8.88;;;24.10;74.80;;;;;;5115983;28;20016;-76
2023/06/23 10:29:08;;;;;;;13.13;8.75;;;24.20;74.80;;;;;;5134036;28;20424;-76
2023/06/23 10:31:35;;;;;;;13.27;9.30;;;24.30;74.70;;;;;;5116052;28;20015;-76
2023/06/23 10:34:05;;;;;;;16.02;9.15;;;24.40;74.40;;;;;;5115793;28;20027;-76
2023/06/23 10:36:31;;;;;;;14.05;9.70;;;24.50;74.40;;;;;;5115874;28;20034;-76
2023/06/23 10:39:01;;;;;;;22.63;12.43;;;24.40;73.90;;;;;;5116143;28;20024;-77
2023/06/23 10:41:27;;;;;;;22.77;11.00;;;24.30;74.40;;;;;;5116034;28;20019;-74
2023/06/23 10:43:55;;;;;;;13.73;8.23;;;24.30;73.90;;;;;;5133960;28;20035;-74
2023/06/23 10:46:24;;;;;;;14.93;8.35;;;24.30;74.00;;;;;;5133856;28;20028;-75
2023/06/23 10:48:51;;;;;;;12.43;8.43;;;24.30;74.10;;;;;;5115932;28;20364;-75
2023/06/23 10:51:17;;;;;;;14.18;8.55;;;24.40;73.90;;;;;;5115803;28;20050;-75
2023/06/23 10:53:59;;;;;;;11.13;8.20;;;24.50;73.20;;;;;;5115779;28;20495;-75
2023/06/23 10:56:39;;;;;;;10.38;7.35;;;24.60;73.20;;;;;;5115838;28;20092;-74
2023/06/23 10:59:29;;;;;;;10.77;7.32;;;24.70;72.00;;;;;;5133762;28;20026;-75
2023/06/23 11:02:01;;;;;;;9.52;6.63;;;24.70;71.20;;;;;;5133752;28;20019;-75
2023/06/23 11:04:29;;;;;;;11.15;7.18;;;24.70;70.80;;;;;;5133638;28;20059;-75
2023/06/23 11:07:02;;;;;;;11.07;7.28;;;24.70;70.80;;;;;;5115606;28;20106;-77
2023/06/23 11:10:02;;;;;;;10.52;6.63;;;24.80;70.50;;;;;;5133661;28;20028;-78
2023/06/23 11:12:32;;;;;;;9.65;5.93;;;24.80;70.10;;;;;;5133754;28;20046;-78
2023/06/23 11:15:02;;;;;;;12.05;6.40;;;24.80;70.40;;;;;;5133599;28;20022;-77
2023/06/23 11:17:28;;;;;;;9.57;6.63;;;24.90;70.20;;;;;;5136234;28;20023;-78
2023/06/23 11:19:54;;;;;;;11.35;6.78;;;24.90;70.20;;;;;;5119670;28;20027;-78
2023/06/23 11:22:23;;;;;;;9.57;6.40;;;25.00;70.20;;;;;;5137548;28;20042;-78
2023/06/23 11:24:54;;;;;;;8.82;6.63;;;25.10;69.80;;;;;;5137500;28;20053;-77
2023/06/23 11:27:20;;;;;;;9.60;6.10;;;25.10;69.40;;;;;;5137421;28;20028;-78
2023/06/23 11:30:15;;;;;;;8.35;5.65;;;25.10;69.40;;;;;;5137337;28;20049;-77
2023/06/23 11:32:41;;;;;;;8.73;5.70;;;25.10;66.80;;;;;;5137271;28;20611;-77
2023/06/23 11:35:08;;;;;;;6.50;5.13;;;25.10;68.30;;;;;;5137197;28;20028;-78
2023/06/23 11:37:34;;;;;;;8.55;6.57;;;25.20;69.20;;;;;;5137250;28;20030;-80
2023/06/23 11:40:01;;;;;;;8.90;6.47;;;25.20;67.30;;;;;;5137170;28;20016;-80
2023/06/23 11:42:27;;;;;;;9.05;5.97;;;25.20;67.80;;;;;;5137128;28;20015;-80
2023/06/23 11:44:56;;;;;;;9.32;5.60;;;25.20;68.10;;;;;;5136978;28;20098;-80
2023/06/23 11:47:29;;;;;;;8.32;5.43;;;25.20;67.80;;;;;;5136936;28;20028;-81
2023/06/23 11:49:54;;;;;;;;;;;25.30;67.40;;;;;;5137415;28;20026;-80
2023/06/23 11:52:21;;;;;;;7.35;5.25;;;25.40;66.40;;;;;;5136721;28;19903;-77
2023/06/23 11:54:51;;;;;;;8.73;5.65;;;25.50;67.40;;;;;;5118783;28;20019;-78
2023/06/23 11:57:20;;;;;;;6.82;5.00;;;25.60;67.50;;;;;;5136802;28;20031;-78
2023/06/23 11:59:46;;;;;;;8.50;5.43;;;25.70;66.90;;;;;;5118652;28;20036;-78
2023/06/23 12:02:12;;;;;;;7.57;4.90;;;25.80;66.90;;;;;;5118678;28;20040;-78
2023/06/23 12:04:39;;;;;;;8.75;5.30;;;25.80;67.00;;;;;;5118654;28;20053;-78
2023/06/23 12:07:04;;;;;;;8.50;5.40;;;25.90;66.90;;;;;;5085336;28;20026;-78
2023/06/23 12:09:31;;;;;;;8.65;4.85;;;25.90;66.70;;;;;;5118462;28;20024;-78
2023/06/23 12:11:58;;;;;;;6.68;5.18;;;25.90;65.70;;;;;;5136553;28;20019;-79
2023/06/23 12:14:31;;;;;;;8.23;5.18;;;25.90;66.00;;;;;;5118448;28;20023;-78
2023/06/23 12:17:07;;;;;;;7.72;5.30;;;25.90;65.20;;;;;;5136335;28;20031;-77
2023/06/23 12:19:34;;;;;;;8.18;5.30;;;25.90;64.70;;;;;;5118447;28;20043;-77
2023/06/23 12:22:01;;;;;;;6.60;4.70;;;25.90;65.10;;;;;;5118414;28;20024;-77
2023/06/23 12:24:30;;;;;;;4.72;3.90;;;26.00;65.70;;;;;;5136255;28;20446;-78
2023/06/23 12:26:57;;;;;;;6.78;4.15;;;26.20;65.30;;;;;;5136245;28;20565;-78
2023/06/23 12:29:23;;;;;;;6.88;4.32;;;26.30;64.80;;;;;;5117383;28;20058;-78
2023/06/23 12:31:56;;;;;;;6.40;3.80;;;26.40;63.50;;;;;;5118200;28;20113;-77
2023/06/23 12:34:28;;;;;;;5.95;4.13;;;26.50;62.60;;;;;;5118015;28;20062;-76
2023/06/23 12:37:02;;;;;;;5.60;4.22;;;26.50;61.30;;;;;;5118060;28;20024;-75
2023/06/23 12:39:29;;;;;;;7.50;4.15;;;26.40;61.90;;;;;;5101104;28;20091;-75
2023/06/23 12:41:57;;;;;;;7.45;4.10;;;26.40;63.00;;;;;;5135938;28;20031;-75